sensor_id;sensor_type;location;lat;lon;timestamp;temperature;humidity
30889;DHT22;51092;50.874;7.024;2023-04-09T00:00:49;8.00;99.90
30889;DHT22;51092;50.874;7.024;2023-04-09T00:01:51;8.00;99.90
30889;DHT22;51092;50.874;7.024;2023-04-09T00:02:55;7.90;99.90
30889;DHT22;51092;50.874;7.024;2023-04-09T00:03:57;7.90;99.90
30889;DHT22;51092;50.874;7.024;2023-04-09T00:05:00;7.90;99.90
30889;DHT22;51092;50.874;7.024;2023-04-09T00:06:02;7.90;99.90
30889;DHT22;51092;50.874;7.024;2023-04-09T00:07:04;7.90;99.90
30889;DHT22;51092;50.874;7.024;2023-04-09T00:08:06;7.90;99.90
30889;DHT22;51092;50.874;7.024;2023-04-09T00:09:09;7.90;99.90
30889;DHT22;51092;50.874;7.024;2023-04-09T00:10:10;8.00;99.90
30889;DHT22;51092;50.874;7.024;2023-04-09T00:11:13;8.00;99.90
30889;DHT22;51092;50.874;7.024;2023-04-09T00:12:15;8.00;99.90
30889;DHT22;51092;50.874;7.024;2023-04-09T00:13:17;7.90;99.90
30889;DHT22;51092;50.874;7.024;2023-04-09T00:14:18;7.80;99.90
30889;DHT22;51092;50.874;7.024;2023-04-09T00:15:20;7.80;99.90
30889;DHT22;51092;50.874;7.024;2023-04-09T00:16:20;7.70;99.90
30889;DHT22;51092;50.874;7.024;2023-04-09T00:17:23;7.60;99.90
30889;DHT22;51092;50.874;7.024;2023-04-09T00:18:26;7.60;99.90
30889;DHT22;51092;50.874;7.024;2023-04-09T00:19:28;7.60;99.90
30889;DHT22;51092;50.874;7.024;2023-04-09T00:20:30;7.60;99.90
30889;DHT22;51092;50.874;7.024;2023-04-09T00:21:32;7.60;99.90
30889;DHT22;51092;50.874;7.024;2023-04-09T00:22:34;7.60;99.90
30889;DHT22;51092;50.874;7.024;2023-04-09T00:23:37;7.70;99.90
30889;DHT22;51092;50.874;7.024;2023-04-09T00:24:38;7.70;99.90
30889;DHT22;51092;50.874;7.024;2023-04-09T00:25:41;7.80;99.90
30889;DHT22;51092;50.874;7.024;2023-04-09T00:26:42;7.80;99.90
30889;DHT22;51092;50.874;7.024;2023-04-09T00:27:45;7.90;99.90
30889;DHT22;51092;50.874;7.024;2023-04-09T00:28:46;7.90;99.90
30889;DHT22;51092;50.874;7.024;2023-04-09T00:29:49;7.80;99.90
30889;DHT22;51092;50.874;7.024;2023-04-09T00:30:50;7.90;99.90
30889;DHT22;51092;50.874;7.024;2023-04-09T00:31:53;7.90;99.90
30889;DHT22;51092;50.874;7.024;2023-04-09T00:32:55;7.90;99.90
30889;DHT22;51092;50.874;7.024;2023-04-09T00:33:59;7.90;99.90
30889;DHT22;51092;50.874;7.024;2023-04-09T00:35:00;7.90;99.90
30889;DHT22;51092;50.874;7.024;2023-04-09T00:36:03;7.90;99.90
30889;DHT22;51092;50.874;7.024;2023-04-09T00:37:04;7.90;99.90
30889;DHT22;51092;50.874;7.024;2023-04-09T00:38:06;7.90;99.90
30889;DHT22;51092;50.874;7.024;2023-04-09T00:39:07;7.90;99.90
30889;DHT22;51092;50.874;7.024;2023-04-09T00:40:09;7.90;99.90
30889;DHT22;51092;50.874;7.024;2023-04-09T00:41:11;7.90;99.90
30889;DHT22;51092;50.874;7.024;2023-04-09T00:42:13;8.00;99.90
30889;DHT22;51092;50.874;7.024;2023-04-09T00:43:17;8.00;99.90
30889;DHT22;51092;50.874;7.024;2023-04-09T00:44:19;7.90;99.90
30889;DHT22;51092;50.874;7.024;2023-04-09T00:45:21;7.90;99.90
30889;DHT22;51092;50.874;7.024;2023-04-09T00:46:23;7.90;99.90
30889;DHT22;51092;50.874;7.024;2023-04-09T00:47:25;7.90;99.90
30889;DHT22;51092;50.874;7.024;2023-04-09T00:48:28;7.90;99.90
30889;DHT22;51092;50.874;7.024;2023-04-09T00:49:31;7.90;99.90
30889;DHT22;51092;50.874;7.024;2023-04-09T00:50:34;7.90;99.90
30889;DHT22;51092;50.874;7.024;2023-04-09T00:51:35;7.90;99.90
30889;DHT22;51092;50.874;7.024;2023-04-09T00:52:38;7.90;99.90
30889;DHT22;51092;50.874;7.024;2023-04-09T00:53:40;7.90;99.90
30889;DHT22;51092;50.874;7.024;2023-04-09T00:54:44;7.80;99.90
30889;DHT22;51092;50.874;7.024;2023-04-09T00:55:45;7.80;99.90
30889;DHT22;51092;50.874;7.024;2023-04-09T00:56:48;7.90;99.90
30889;DHT22;51092;50.874;7.024;2023-04-09T00:57:49;7.90;99.90
30889;DHT22;51092;50.874;7.024;2023-04-09T00:58:53;7.90;99.90
30889;DHT22;51092;50.874;7.024;2023-04-09T00:59:54;7.80;99.90
30889;DHT22;51092;50.874;7.024;2023-04-09T01:00:57;7.80;99.90
30889;DHT22;51092;50.874;7.024;2023-04-09T01:01:58;7.90;99.90
30889;DHT22;51092;50.874;7.024;2023-04-09T01:03:01;7.90;99.90
30889;DHT22;51092;50.874;7.024;2023-04-09T01:04:04;7.90;99.90
30889;DHT22;51092;50.874;7.024;2023-04-09T01:05:09;7.80;99.90
30889;DHT22;51092;50.874;7.024;2023-04-09T01:06:14;7.80;99.90
30889;DHT22;51092;50.874;7.024;2023-04-09T01:07:22;7.80;99.90
30889;DHT22;51092;50.874;7.024;2023-04-09T01:08:32;7.80;99.90
30889;DHT22;51092;50.874;7.024;2023-04-09T01:09:41;7.70;99.90
30889;DHT22;51092;50.874;7.024;2023-04-09T01:10:48;7.70;99.90
30889;DHT22;51092;50.874;7.024;2023-04-09T01:12:11;7.70;99.90
30889;DHT22;51092;50.874;7.024;2023-04-09T01:13:17;7.70;99.90
30889;DHT22;51092;50.874;7.024;2023-04-09T01:14:25;7.70;99.90
30889;DHT22;51092;50.874;7.024;2023-04-09T01:15:32;7.60;99.90
30889;DHT22;51092;50.874;7.024;2023-04-09T01:16:36;7.60;99.90
30889;DHT22;51092;50.874;7.024;2023-04-09T01:17:43;7.60;99.90
30889;DHT22;51092;50.874;7.024;2023-04-09T01:18:51;7.60;99.90
30889;DHT22;51092;50.874;7.024;2023-04-09T01:20:00;7.60;99.90
30889;DHT22;51092;50.874;7.024;2023-04-09T01:21:08;7.60;99.90
30889;DHT22;51092;50.874;7.024;2023-04-09T01:22:28;7.50;99.90
30889;DHT22;51092;50.874;7.024;2023-04-09T01:23:39;7.50;99.90
30889;DHT22;51092;50.874;7.024;2023-04-09T01:24:56;7.50;99.90
30889;DHT22;51092;50.874;7.024;2023-04-09T01:26:03;7.50;99.90
30889;DHT22;51092;50.874;7.024;2023-04-09T01:27:08;7.50;99.90
30889;DHT22;51092;50.874;7.024;2023-04-09T01:28:16;7.50;99.90
30889;DHT22;51092;50.874;7.024;2023-04-09T01:29:19;7.40;99.90
30889;DHT22;51092;50.874;7.024;2023-04-09T01:30:23;7.40;99.90
30889;DHT22;51092;50.874;7.024;2023-04-09T01:31:28;7.40;99.90
30889;DHT22;51092;50.874;7.024;2023-04-09T01:32:33;7.40;99.90
30889;DHT22;51092;50.874;7.024;2023-04-09T01:33:37;7.40;99.90
30889;DHT22;51092;50.874;7.024;2023-04-09T01:34:40;7.30;99.90
30889;DHT22;51092;50.874;7.024;2023-04-09T01:35:43;7.30;99.90
30889;DHT22;51092;50.874;7.024;2023-04-09T01:36:50;7.30;99.90
30889;DHT22;51092;50.874;7.024;2023-04-09T01:37:53;7.30;99.90
30889;DHT22;51092;50.874;7.024;2023-04-09T01:38:56;7.20;99.90
30889;DHT22;51092;50.874;7.024;2023-04-09T01:39:58;7.20;99.90
30889;DHT22;51092;50.874;7.024;2023-04-09T01:41:02;7.20;99.90
30889;DHT22;51092;50.874;7.024;2023-04-09T01:42:05;7.20;99.90
30889;DHT22;51092;50.874;7.024;2023-04-09T01:43:11;7.30;99.90
30889;DHT22;51092;50.874;7.024;2023-04-09T01:44:16;7.30;99.90
30889;DHT22;51092;50.874;7.024;2023-04-09T01:45:19;7.20;99.90
30889;DHT22;51092;50.874;7.024;2023-04-09T01:46:21;7.20;99.90
30889;DHT22;51092;50.874;7.024;2023-04-09T01:47:24;7.10;99.90
30889;DHT22;51092;50.874;7.024;2023-04-09T01:48:26;7.10;99.90
30889;DHT22;51092;50.874;7.024;2023-04-09T01:49:31;7.10;99.90
30889;DHT22;51092;50.874;7.024;2023-04-09T01:50:33;7.10;99.90
30889;DHT22;51092;50.874;7.024;2023-04-09T01:51:36;7.10;99.90
30889;DHT22;51092;50.874;7.024;2023-04-09T01:52:38;7.10;99.90
30889;DHT22;51092;50.874;7.024;2023-04-09T01:53:41;7.10;99.90
30889;DHT22;51092;50.874;7.024;2023-04-09T01:54:42;7.10;99.90
30889;DHT22;51092;50.874;7.024;2023-04-09T01:55:44;7.00;99.90
30889;DHT22;51092;50.874;7.024;2023-04-09T01:56:47;7.00;99.90
30889;DHT22;51092;50.874;7.024;2023-04-09T01:57:50;7.00;99.90
30889;DHT22;51092;50.874;7.024;2023-04-09T01:58:51;7.00;99.90
30889;DHT22;51092;50.874;7.024;2023-04-09T01:59:56;7.00;99.90
30889;DHT22;51092;50.874;7.024;2023-04-09T02:01:02;7.00;99.90
30889;DHT22;51092;50.874;7.024;2023-04-09T02:02:09;7.00;99.90
30889;DHT22;51092;50.874;7.024;2023-04-09T02:03:17;7.10;99.90
30889;DHT22;51092;50.874;7.024;2023-04-09T02:04:22;7.10;99.90
30889;DHT22;51092;50.874;7.024;2023-04-09T02:05:26;7.10;99.90
30889;DHT22;51092;50.874;7.024;2023-04-09T02:06:38;7.10;99.90
30889;DHT22;51092;50.874;7.024;2023-04-09T02:07:44;7.10;99.90
30889;DHT22;51092;50.874;7.024;2023-04-09T02:08:50;7.00;99.90
30889;DHT22;51092;50.874;7.024;2023-04-09T02:09:53;7.00;99.90
30889;DHT22;51092;50.874;7.024;2023-04-09T02:10:57;6.90;99.90
30889;DHT22;51092;50.874;7.024;2023-04-09T02:12:02;6.90;99.90
30889;DHT22;51092;50.874;7.024;2023-04-09T02:13:09;6.90;99.90
30889;DHT22;51092;50.874;7.024;2023-04-09T02:14:15;6.90;99.90
30889;DHT22;51092;50.874;7.024;2023-04-09T02:15:20;6.80;99.90
30889;DHT22;51092;50.874;7.024;2023-04-09T02:16:24;6.80;99.90
30889;DHT22;51092;50.874;7.024;2023-04-09T02:17:27;6.90;99.90
30889;DHT22;51092;50.874;7.024;2023-04-09T02:18:30;6.90;99.90
30889;DHT22;51092;50.874;7.024;2023-04-09T02:19:39;6.90;99.90
30889;DHT22;51092;50.874;7.024;2023-04-09T02:20:42;6.90;99.90
30889;DHT22;51092;50.874;7.024;2023-04-09T02:21:43;6.90;99.90
30889;DHT22;51092;50.874;7.024;2023-04-09T02:22:46;6.80;99.90
30889;DHT22;51092;50.874;7.024;2023-04-09T02:23:47;6.80;99.90
30889;DHT22;51092;50.874;7.024;2023-04-09T02:24:50;6.80;99.90
30889;DHT22;51092;50.874;7.024;2023-04-09T02:25:52;6.80;99.90
30889;DHT22;51092;50.874;7.024;2023-04-09T02:26:54;6.80;99.90
30889;DHT22;51092;50.874;7.024;2023-04-09T02:27:56;6.90;99.90
30889;DHT22;51092;50.874;7.024;2023-04-09T02:28:58;6.90;99.90
30889;DHT22;51092;50.874;7.024;2023-04-09T02:30:00;6.90;99.90
30889;DHT22;51092;50.874;7.024;2023-04-09T02:31:04;6.90;99.90
30889;DHT22;51092;50.874;7.024;2023-04-09T02:32:06;6.90;99.90
30889;DHT22;51092;50.874;7.024;2023-04-09T02:33:08;6.90;99.90
30889;DHT22;51092;50.874;7.024;2023-04-09T02:34:10;6.90;99.90
30889;DHT22;51092;50.874;7.024;2023-04-09T02:35:13;6.90;99.90
30889;DHT22;51092;50.874;7.024;2023-04-09T02:36:15;6.90;99.90
30889;DHT22;51092;50.874;7.024;2023-04-09T02:37:16;6.90;99.90
30889;DHT22;51092;50.874;7.024;2023-04-09T02:38:20;6.90;99.90
30889;DHT22;51092;50.874;7.024;2023-04-09T02:39:21;6.90;99.90
30889;DHT22;51092;50.874;7.024;2023-04-09T02:40:24;6.90;99.90
30889;DHT22;51092;50.874;7.024;2023-04-09T02:41:25;6.90;99.90
30889;DHT22;51092;50.874;7.024;2023-04-09T02:42:28;6.90;99.90
30889;DHT22;51092;50.874;7.024;2023-04-09T02:43:29;6.90;99.90
30889;DHT22;51092;50.874;7.024;2023-04-09T02:44:32;6.90;99.90
30889;DHT22;51092;50.874;7.024;2023-04-09T02:45:33;6.90;99.90
30889;DHT22;51092;50.874;7.024;2023-04-09T02:46:38;6.90;99.90
30889;DHT22;51092;50.874;7.024;2023-04-09T02:47:39;6.90;99.90
30889;DHT22;51092;50.874;7.024;2023-04-09T02:48:42;6.90;99.90
30889;DHT22;51092;50.874;7.024;2023-04-09T02:49:43;6.90;99.90
30889;DHT22;51092;50.874;7.024;2023-04-09T02:50:46;6.80;99.90
30889;DHT22;51092;50.874;7.024;2023-04-09T02:51:47;6.80;99.90
30889;DHT22;51092;50.874;7.024;2023-04-09T02:52:50;6.90;99.90
30889;DHT22;51092;50.874;7.024;2023-04-09T02:53:52;6.90;99.90
30889;DHT22;51092;50.874;7.024;2023-04-09T02:54:53;6.90;99.90
30889;DHT22;51092;50.874;7.024;2023-04-09T02:55:54;6.90;99.90
30889;DHT22;51092;50.874;7.024;2023-04-09T02:56:56;6.90;99.90
30889;DHT22;51092;50.874;7.024;2023-04-09T02:57:57;6.90;99.90
30889;DHT22;51092;50.874;7.024;2023-04-09T02:58:59;6.90;99.90
30889;DHT22;51092;50.874;7.024;2023-04-09T03:00:00;6.90;99.90
30889;DHT22;51092;50.874;7.024;2023-04-09T03:01:03;6.90;99.90
30889;DHT22;51092;50.874;7.024;2023-04-09T03:02:05;6.90;99.90
30889;DHT22;51092;50.874;7.024;2023-04-09T03:03:07;6.90;99.90
30889;DHT22;51092;50.874;7.024;2023-04-09T03:04:08;6.90;99.90
30889;DHT22;51092;50.874;7.024;2023-04-09T03:05:11;6.90;99.90
30889;DHT22;51092;50.874;7.024;2023-04-09T03:06:12;6.90;99.90
30889;DHT22;51092;50.874;7.024;2023-04-09T03:07:15;6.90;99.90
30889;DHT22;51092;50.874;7.024;2023-04-09T03:08:17;6.90;99.90
30889;DHT22;51092;50.874;7.024;2023-04-09T03:09:19;6.90;99.90
30889;DHT22;51092;50.874;7.024;2023-04-09T03:10:21;6.90;99.90
30889;DHT22;51092;50.874;7.024;2023-04-09T03:11:23;6.90;99.90
30889;DHT22;51092;50.874;7.024;2023-04-09T03:12:24;6.90;99.90
30889;DHT22;51092;50.874;7.024;2023-04-09T03:13:26;6.90;99.90
30889;DHT22;51092;50.874;7.024;2023-04-09T03:14:27;6.90;99.90
30889;DHT22;51092;50.874;7.024;2023-04-09T03:15:30;6.90;99.90
30889;DHT22;51092;50.874;7.024;2023-04-09T03:16:31;6.90;99.90
30889;DHT22;51092;50.874;7.024;2023-04-09T03:17:35;6.90;99.90
30889;DHT22;51092;50.874;7.024;2023-04-09T03:18:37;6.90;99.90
30889;DHT22;51092;50.874;7.024;2023-04-09T03:19:40;6.90;99.90
30889;DHT22;51092;50.874;7.024;2023-04-09T03:20:41;6.80;99.90
30889;DHT22;51092;50.874;7.024;2023-04-09T03:21:44;6.80;99.90
30889;DHT22;51092;50.874;7.024;2023-04-09T03:22:46;6.80;99.90
30889;DHT22;51092;50.874;7.024;2023-04-09T03:23:49;6.80;99.90
30889;DHT22;51092;50.874;7.024;2023-04-09T03:24:50;6.80;99.90
30889;DHT22;51092;50.874;7.024;2023-04-09T03:26:00;6.80;99.90
30889;DHT22;51092;50.874;7.024;2023-04-09T03:27:01;6.80;99.90
30889;DHT22;51092;50.874;7.024;2023-04-09T03:28:04;6.70;99.90
30889;DHT22;51092;50.874;7.024;2023-04-09T03:29:05;6.70;99.90
30889;DHT22;51092;50.874;7.024;2023-04-09T03:30:09;6.50;99.90
30889;DHT22;51092;50.874;7.024;2023-04-09T03:31:11;6.50;99.90
30889;DHT22;51092;50.874;7.024;2023-04-09T03:32:14;6.40;99.90
30889;DHT22;51092;50.874;7.024;2023-04-09T03:33:17;6.40;99.90
30889;DHT22;51092;50.874;7.024;2023-04-09T03:34:19;6.40;99.90
30889;DHT22;51092;50.874;7.024;2023-04-09T03:35:20;6.40;99.90
30889;DHT22;51092;50.874;7.024;2023-04-09T03:36:22;6.40;99.90
30889;DHT22;51092;50.874;7.024;2023-04-09T03:37:24;6.40;99.90
30889;DHT22;51092;50.874;7.024;2023-04-09T03:38:25;6.40;99.90
30889;DHT22;51092;50.874;7.024;2023-04-09T03:39:28;6.40;99.90
30889;DHT22;51092;50.874;7.024;2023-04-09T03:40:31;6.40;99.90
30889;DHT22;51092;50.874;7.024;2023-04-09T03:41:33;6.50;99.90
30889;DHT22;51092;50.874;7.024;2023-04-09T03:42:35;6.50;99.90
30889;DHT22;51092;50.874;7.024;2023-04-09T03:43:37;6.50;99.90
30889;DHT22;51092;50.874;7.024;2023-04-09T03:44:39;6.60;99.90
30889;DHT22;51092;50.874;7.024;2023-04-09T03:45:42;6.60;99.90
30889;DHT22;51092;50.874;7.024;2023-04-09T03:46:43;6.60;99.90
30889;DHT22;51092;50.874;7.024;2023-04-09T03:47:46;6.60;99.90
30889;DHT22;51092;50.874;7.024;2023-04-09T03:48:48;6.70;99.90
30889;DHT22;51092;50.874;7.024;2023-04-09T03:49:51;6.70;99.90
30889;DHT22;51092;50.874;7.024;2023-04-09T03:50:53;6.80;99.90
30889;DHT22;51092;50.874;7.024;2023-04-09T03:51:55;6.70;99.90
30889;DHT22;51092;50.874;7.024;2023-04-09T03:52:57;6.80;99.90
30889;DHT22;51092;50.874;7.024;2023-04-09T03:53:59;6.80;99.90
30889;DHT22;51092;50.874;7.024;2023-04-09T03:55:02;6.70;99.90
30889;DHT22;51092;50.874;7.024;2023-04-09T03:56:05;6.70;99.90
30889;DHT22;51092;50.874;7.024;2023-04-09T03:57:07;6.70;99.90
30889;DHT22;51092;50.874;7.024;2023-04-09T03:58:10;6.70;99.90
30889;DHT22;51092;50.874;7.024;2023-04-09T03:59:11;6.70;99.90
30889;DHT22;51092;50.874;7.024;2023-04-09T04:00:14;6.70;99.90
30889;DHT22;51092;50.874;7.024;2023-04-09T04:01:16;6.70;99.90
30889;DHT22;51092;50.874;7.024;2023-04-09T04:02:18;6.70;99.90
30889;DHT22;51092;50.874;7.024;2023-04-09T04:03:19;6.70;99.90
30889;DHT22;51092;50.874;7.024;2023-04-09T04:04:23;6.70;99.90
30889;DHT22;51092;50.874;7.024;2023-04-09T04:05:23;6.70;99.90
30889;DHT22;51092;50.874;7.024;2023-04-09T04:06:26;6.70;99.90
30889;DHT22;51092;50.874;7.024;2023-04-09T04:07:28;6.70;99.90
30889;DHT22;51092;50.874;7.024;2023-04-09T04:08:30;6.70;99.90
30889;DHT22;51092;50.874;7.024;2023-04-09T04:09:30;6.70;99.90
30889;DHT22;51092;50.874;7.024;2023-04-09T04:10:32;6.60;99.90
30889;DHT22;51092;50.874;7.024;2023-04-09T04:11:33;6.60;99.90
30889;DHT22;51092;50.874;7.024;2023-04-09T04:12:36;6.60;99.90
30889;DHT22;51092;50.874;7.024;2023-04-09T04:13:37;6.50;99.90
30889;DHT22;51092;50.874;7.024;2023-04-09T04:14:40;6.50;99.90
30889;DHT22;51092;50.874;7.024;2023-04-09T04:15:41;6.60;99.90
30889;DHT22;51092;50.874;7.024;2023-04-09T04:16:44;6.50;99.90
30889;DHT22;51092;50.874;7.024;2023-04-09T04:17:45;6.50;99.90
30889;DHT22;51092;50.874;7.024;2023-04-09T04:18:48;6.50;99.90
30889;DHT22;51092;50.874;7.024;2023-04-09T04:19:51;6.50;99.90
30889;DHT22;51092;50.874;7.024;2023-04-09T04:20:53;6.50;99.90
30889;DHT22;51092;50.874;7.024;2023-04-09T04:21:55;6.60;99.90
30889;DHT22;51092;50.874;7.024;2023-04-09T04:22:57;6.60;99.90
30889;DHT22;51092;50.874;7.024;2023-04-09T04:23:59;6.60;99.90
30889;DHT22;51092;50.874;7.024;2023-04-09T04:25:02;6.60;99.90
30889;DHT22;51092;50.874;7.024;2023-04-09T04:26:06;6.60;99.90
30889;DHT22;51092;50.874;7.024;2023-04-09T04:27:22;6.60;99.90
30889;DHT22;51092;50.874;7.024;2023-04-09T04:28:25;6.60;99.90
30889;DHT22;51092;50.874;7.024;2023-04-09T04:29:26;6.50;99.90
30889;DHT22;51092;50.874;7.024;2023-04-09T04:30:29;6.50;99.90
30889;DHT22;51092;50.874;7.024;2023-04-09T04:31:30;6.50;99.90
30889;DHT22;51092;50.874;7.024;2023-04-09T04:32:33;6.60;99.90
30889;DHT22;51092;50.874;7.024;2023-04-09T04:33:34;6.50;99.90
30889;DHT22;51092;50.874;7.024;2023-04-09T04:34:37;6.50;99.90
30889;DHT22;51092;50.874;7.024;2023-04-09T04:35:40;6.40;99.90
30889;DHT22;51092;50.874;7.024;2023-04-09T04:36:42;6.50;99.90
30889;DHT22;51092;50.874;7.024;2023-04-09T04:37:44;6.40;99.90
30889;DHT22;51092;50.874;7.024;2023-04-09T04:38:46;6.40;99.90
30889;DHT22;51092;50.874;7.024;2023-04-09T04:39:48;6.50;99.90
30889;DHT22;51092;50.874;7.024;2023-04-09T04:40:50;6.50;99.90
30889;DHT22;51092;50.874;7.024;2023-04-09T04:41:52;6.60;99.90
30889;DHT22;51092;50.874;7.024;2023-04-09T04:42:55;6.50;99.90
30889;DHT22;51092;50.874;7.024;2023-04-09T04:43:56;6.50;99.90
30889;DHT22;51092;50.874;7.024;2023-04-09T04:44:58;6.50;99.90
30889;DHT22;51092;50.874;7.024;2023-04-09T04:46:00;6.50;99.90
30889;DHT22;51092;50.874;7.024;2023-04-09T04:47:02;6.50;99.90
30889;DHT22;51092;50.874;7.024;2023-04-09T04:48:04;6.50;99.90
30889;DHT22;51092;50.874;7.024;2023-04-09T04:49:06;6.50;99.90
30889;DHT22;51092;50.874;7.024;2023-04-09T04:50:09;6.60;99.90
30889;DHT22;51092;50.874;7.024;2023-04-09T04:51:12;6.50;99.90
30889;DHT22;51092;50.874;7.024;2023-04-09T04:52:14;6.50;99.90
30889;DHT22;51092;50.874;7.024;2023-04-09T04:53:16;6.50;99.90
30889;DHT22;51092;50.874;7.024;2023-04-09T04:54:18;6.40;99.90
30889;DHT22;51092;50.874;7.024;2023-04-09T04:55:21;6.50;99.90
30889;DHT22;51092;50.874;7.024;2023-04-09T04:56:22;6.50;99.90
30889;DHT22;51092;50.874;7.024;2023-04-09T04:57:25;6.50;99.90
30889;DHT22;51092;50.874;7.024;2023-04-09T04:58:27;6.40;99.90
30889;DHT22;51092;50.874;7.024;2023-04-09T04:59:30;6.40;99.90
30889;DHT22;51092;50.874;7.024;2023-04-09T05:00:32;6.40;99.90
30889;DHT22;51092;50.874;7.024;2023-04-09T05:01:34;6.40;99.90
30889;DHT22;51092;50.874;7.024;2023-04-09T05:02:36;6.40;99.90
30889;DHT22;51092;50.874;7.024;2023-04-09T05:03:38;6.40;99.90
30889;DHT22;51092;50.874;7.024;2023-04-09T05:04:40;6.40;99.90
30889;DHT22;51092;50.874;7.024;2023-04-09T05:05:42;6.40;99.90
30889;DHT22;51092;50.874;7.024;2023-04-09T05:06:45;6.30;99.90
30889;DHT22;51092;50.874;7.024;2023-04-09T05:07:46;6.30;99.90
30889;DHT22;51092;50.874;7.024;2023-04-09T05:08:47;6.30;99.90
30889;DHT22;51092;50.874;7.024;2023-04-09T05:09:50;6.30;99.90
30889;DHT22;51092;50.874;7.024;2023-04-09T05:10:51;6.30;99.90
30889;DHT22;51092;50.874;7.024;2023-04-09T05:11:56;6.30;99.90
30889;DHT22;51092;50.874;7.024;2023-04-09T05:12:57;6.40;99.90
30889;DHT22;51092;50.874;7.024;2023-04-09T05:14:00;6.40;99.90
30889;DHT22;51092;50.874;7.024;2023-04-09T05:15:02;6.40;99.90
30889;DHT22;51092;50.874;7.024;2023-04-09T05:16:05;6.40;99.90
30889;DHT22;51092;50.874;7.024;2023-04-09T05:17:06;6.40;99.90
30889;DHT22;51092;50.874;7.024;2023-04-09T05:18:09;6.40;99.90
30889;DHT22;51092;50.874;7.024;2023-04-09T05:19:11;6.40;99.90
30889;DHT22;51092;50.874;7.024;2023-04-09T05:20:13;6.40;99.90
30889;DHT22;51092;50.874;7.024;2023-04-09T05:21:15;6.50;99.90
30889;DHT22;51092;50.874;7.024;2023-04-09T05:22:18;6.50;99.90
30889;DHT22;51092;50.874;7.024;2023-04-09T05:23:21;6.50;99.90
30889;DHT22;51092;50.874;7.024;2023-04-09T05:24:22;6.50;99.90
30889;DHT22;51092;50.874;7.024;2023-04-09T05:25:25;6.50;99.90
30889;DHT22;51092;50.874;7.024;2023-04-09T05:26:26;6.60;99.90
30889;DHT22;51092;50.874;7.024;2023-04-09T05:27:29;6.60;99.90
30889;DHT22;51092;50.874;7.024;2023-04-09T05:28:31;6.70;99.90
30889;DHT22;51092;50.874;7.024;2023-04-09T05:29:33;6.70;99.90
30889;DHT22;51092;50.874;7.024;2023-04-09T05:30:35;6.70;99.90
30889;DHT22;51092;50.874;7.024;2023-04-09T05:31:38;6.80;99.90
30889;DHT22;51092;50.874;7.024;2023-04-09T05:32:40;6.90;99.20
30889;DHT22;51092;50.874;7.024;2023-04-09T05:33:43;6.90;99.10
30889;DHT22;51092;50.874;7.024;2023-04-09T05:34:44;7.00;97.70
30889;DHT22;51092;50.874;7.024;2023-04-09T05:35:47;7.00;97.60
30889;DHT22;51092;50.874;7.024;2023-04-09T05:36:49;6.90;97.60
30889;DHT22;51092;50.874;7.024;2023-04-09T05:37:52;6.90;97.70
30889;DHT22;51092;50.874;7.024;2023-04-09T05:38:54;6.90;97.60
30889;DHT22;51092;50.874;7.024;2023-04-09T05:39:57;6.90;97.50
30889;DHT22;51092;50.874;7.024;2023-04-09T05:40:58;6.90;97.70
30889;DHT22;51092;50.874;7.024;2023-04-09T05:42:02;6.90;97.70
30889;DHT22;51092;50.874;7.024;2023-04-09T05:43:03;7.00;97.40
30889;DHT22;51092;50.874;7.024;2023-04-09T05:44:06;6.90;97.40
30889;DHT22;51092;50.874;7.024;2023-04-09T05:45:08;7.00;97.10
30889;DHT22;51092;50.874;7.024;2023-04-09T05:46:11;7.00;96.90
30889;DHT22;51092;50.874;7.024;2023-04-09T05:47:14;7.00;96.50
30889;DHT22;51092;50.874;7.024;2023-04-09T05:48:20;7.00;96.70
30889;DHT22;51092;50.874;7.024;2023-04-09T05:49:21;7.00;96.40
30889;DHT22;51092;50.874;7.024;2023-04-09T05:50:24;7.00;96.50
30889;DHT22;51092;50.874;7.024;2023-04-09T05:51:26;7.10;96.50
30889;DHT22;51092;50.874;7.024;2023-04-09T05:52:27;7.10;96.50
30889;DHT22;51092;50.874;7.024;2023-04-09T05:53:31;7.10;96.40
30889;DHT22;51092;50.874;7.024;2023-04-09T05:54:34;7.20;96.10
30889;DHT22;51092;50.874;7.024;2023-04-09T05:55:35;7.20;95.60
30889;DHT22;51092;50.874;7.024;2023-04-09T05:56:38;7.20;95.70
30889;DHT22;51092;50.874;7.024;2023-04-09T05:57:39;7.20;95.50
30889;DHT22;51092;50.874;7.024;2023-04-09T05:58:42;7.10;95.70
30889;DHT22;51092;50.874;7.024;2023-04-09T05:59:43;7.20;95.60
30889;DHT22;51092;50.874;7.024;2023-04-09T06:00:46;7.30;95.40
30889;DHT22;51092;50.874;7.024;2023-04-09T06:01:48;7.30;95.50
30889;DHT22;51092;50.874;7.024;2023-04-09T06:02:50;7.30;94.90
30889;DHT22;51092;50.874;7.024;2023-04-09T06:03:52;7.30;95.10
30889;DHT22;51092;50.874;7.024;2023-04-09T06:04:54;7.30;95.00
30889;DHT22;51092;50.874;7.024;2023-04-09T06:05:56;7.30;95.10
30889;DHT22;51092;50.874;7.024;2023-04-09T06:06:58;7.40;95.00
30889;DHT22;51092;50.874;7.024;2023-04-09T06:08:00;7.40;95.00
30889;DHT22;51092;50.874;7.024;2023-04-09T06:09:04;7.50;94.80
30889;DHT22;51092;50.874;7.024;2023-04-09T06:10:07;7.50;94.70
30889;DHT22;51092;50.874;7.024;2023-04-09T06:11:10;7.50;94.50
30889;DHT22;51092;50.874;7.024;2023-04-09T06:12:12;7.50;94.40
30889;DHT22;51092;50.874;7.024;2023-04-09T06:13:15;7.60;94.20
30889;DHT22;51092;50.874;7.024;2023-04-09T06:14:16;7.60;94.30
30889;DHT22;51092;50.874;7.024;2023-04-09T06:15:21;7.60;94.20
30889;DHT22;51092;50.874;7.024;2023-04-09T06:16:22;7.60;94.10
30889;DHT22;51092;50.874;7.024;2023-04-09T06:17:25;7.60;93.90
30889;DHT22;51092;50.874;7.024;2023-04-09T06:18:26;7.60;94.00
30889;DHT22;51092;50.874;7.024;2023-04-09T06:19:28;7.50;94.20
30889;DHT22;51092;50.874;7.024;2023-04-09T06:20:29;7.60;94.20
30889;DHT22;51092;50.874;7.024;2023-04-09T06:21:31;7.60;94.10
30889;DHT22;51092;50.874;7.024;2023-04-09T06:22:32;7.60;94.20
30889;DHT22;51092;50.874;7.024;2023-04-09T06:23:35;7.60;94.20
30889;DHT22;51092;50.874;7.024;2023-04-09T06:24:38;7.60;94.30
30889;DHT22;51092;50.874;7.024;2023-04-09T06:25:41;7.70;94.00
30889;DHT22;51092;50.874;7.024;2023-04-09T06:26:42;7.70;94.00
30889;DHT22;51092;50.874;7.024;2023-04-09T06:27:44;7.70;94.00
30889;DHT22;51092;50.874;7.024;2023-04-09T06:28:45;7.60;94.20
30889;DHT22;51092;50.874;7.024;2023-04-09T06:29:47;7.70;94.10
30889;DHT22;51092;50.874;7.024;2023-04-09T06:30:49;7.80;93.90
30889;DHT22;51092;50.874;7.024;2023-04-09T06:31:51;7.80;93.90
30889;DHT22;51092;50.874;7.024;2023-04-09T06:32:53;7.80;93.80
30889;DHT22;51092;50.874;7.024;2023-04-09T06:33:56;7.70;94.00
30889;DHT22;51092;50.874;7.024;2023-04-09T06:34:57;7.70;94.00
30889;DHT22;51092;50.874;7.024;2023-04-09T06:36:00;7.70;94.00
30889;DHT22;51092;50.874;7.024;2023-04-09T06:37:00;7.80;93.80
30889;DHT22;51092;50.874;7.024;2023-04-09T06:38:03;7.80;93.70
30889;DHT22;51092;50.874;7.024;2023-04-09T06:39:06;7.80;93.70
30889;DHT22;51092;50.874;7.024;2023-04-09T06:40:09;7.80;93.70
30889;DHT22;51092;50.874;7.024;2023-04-09T06:41:12;7.80;93.60
30889;DHT22;51092;50.874;7.024;2023-04-09T06:42:16;7.80;93.60
30889;DHT22;51092;50.874;7.024;2023-04-09T06:43:19;7.80;93.50